sensor_id;sensor_type;location;lat;lon;timestamp;pressure;altitude;pressure_sealevel;temperature;humidity
22440;BME280;11387;51.612;7.210;2023-08-06T00:00:35;99668.19;;;14.30;100.00
22440;BME280;11387;51.612;7.210;2023-08-06T00:03:04;99672.44;;;14.27;100.00
22440;BME280;11387;51.612;7.210;2023-08-06T00:05:33;99663.50;;;14.30;100.00
22440;BME280;11387;51.612;7.210;2023-08-06T00:08:01;99668.31;;;14.33;100.00
22440;BME280;11387;51.612;7.210;2023-08-06T00:10:30;99666.72;;;14.32;100.00
22440;BME280;11387;51.612;7.210;2023-08-06T00:12:59;99671.75;;;14.30;100.00
22440;BME280;11387;51.612;7.210;2023-08-06T00:15:29;99669.13;;;14.34;100.00
22440;BME280;11387;51.612;7.210;2023-08-06T00:17:57;99665.22;;;14.35;100.00
22440;BME280;11387;51.612;7.210;2023-08-06T00:20:26;99658.91;;;14.34;100.00
22440;BME280;11387;51.612;7.210;2023-08-06T00:22:54;99659.13;;;14.41;100.00
22440;BME280;11387;51.612;7.210;2023-08-06T00:25:23;99661.53;;;14.43;100.00
22440;BME280;11387;51.612;7.210;2023-08-06T00:27:51;99652.94;;;14.44;100.00
22440;BME280;11387;51.612;7.210;2023-08-06T00:30:20;99643.53;;;14.45;100.00
22440;BME280;11387;51.612;7.210;2023-08-06T00:32:50;99635.03;;;14.51;100.00
22440;BME280;11387;51.612;7.210;2023-08-06T00:35:18;99636.63;;;14.52;100.00
22440;BME280;11387;51.612;7.210;2023-08-06T00:37:47;99638.34;;;14.56;100.00
22440;BME280;11387;51.612;7.210;2023-08-06T00:40:16;99627.94;;;14.49;100.00
22440;BME280;11387;51.612;7.210;2023-08-06T00:42:44;99635.03;;;14.38;100.00
22440;BME280;11387;51.612;7.210;2023-08-06T00:45:13;99625.31;;;14.41;100.00
22440;BME280;11387;51.612;7.210;2023-08-06T00:47:42;99631.41;;;14.34;100.00
22440;BME280;11387;51.612;7.210;2023-08-06T00:50:12;99633.69;;;14.32;100.00
22440;BME280;11387;51.612;7.210;2023-08-06T00:52:41;99637.81;;;14.26;100.00
22440;BME280;11387;51.612;7.210;2023-08-06T00:55:10;99627.97;;;14.25;100.00
22440;BME280;11387;51.612;7.210;2023-08-06T00:57:38;99630.66;;;14.37;100.00
22440;BME280;11387;51.612;7.210;2023-08-06T01:00:08;99627.28;;;14.28;100.00
22440;BME280;11387;51.612;7.210;2023-08-06T01:02:36;99624.75;;;14.23;100.00
22440;BME280;11387;51.612;7.210;2023-08-06T01:05:06;99618.81;;;14.21;100.00
22440;BME280;11387;51.612;7.210;2023-08-06T01:07:45;99620.84;;;14.24;100.00
22440;BME280;11387;51.612;7.210;2023-08-06T01:10:24;99616.06;;;14.21;100.00
22440;BME280;11387;51.612;7.210;2023-08-06T01:13:03;99619.94;;;14.20;100.00
22440;BME280;11387;51.612;7.210;2023-08-06T01:15:58;99616.06;;;14.21;100.00
22440;BME280;11387;51.612;7.210;2023-08-06T01:18:28;99601.94;;;14.23;100.00
22440;BME280;11387;51.612;7.210;2023-08-06T01:21:01;99603.56;;;14.24;100.00
22440;BME280;11387;51.612;7.210;2023-08-06T01:23:29;99595.75;;;14.26;100.00
22440;BME280;11387;51.612;7.210;2023-08-06T01:26:05;99604.81;;;14.26;100.00
22440;BME280;11387;51.612;7.210;2023-08-06T01:28:40;99592.31;;;14.29;100.00
22440;BME280;11387;51.612;7.210;2023-08-06T01:31:15;99593.81;;;14.26;100.00
22440;BME280;11387;51.612;7.210;2023-08-06T01:33:46;99589.34;;;14.22;100.00
22440;BME280;11387;51.612;7.210;2023-08-06T01:36:18;99594.03;;;14.21;100.00
22440;BME280;11387;51.612;7.210;2023-08-06T01:38:48;99590.84;;;14.19;100.00
22440;BME280;11387;51.612;7.210;2023-08-06T01:41:17;99585.09;;;14.24;100.00
22440;BME280;11387;51.612;7.210;2023-08-06T01:43:45;99583.16;;;14.25;100.00
22440;BME280;11387;51.612;7.210;2023-08-06T01:46:14;99587.59;;;14.29;100.00
22440;BME280;11387;51.612;7.210;2023-08-06T01:48:42;99580.50;;;14.28;100.00
22440;BME280;11387;51.612;7.210;2023-08-06T01:51:11;99572.25;;;14.28;100.00
22440;BME280;11387;51.612;7.210;2023-08-06T01:53:41;99576.25;;;14.31;100.00
22440;BME280;11387;51.612;7.210;2023-08-06T01:56:09;99577.75;;;14.28;100.00
22440;BME280;11387;51.612;7.210;2023-08-06T01:58:38;99587.25;;;14.31;100.00
22440;BME280;11387;51.612;7.210;2023-08-06T02:01:06;99585.50;;;14.38;100.00
22440;BME280;11387;51.612;7.210;2023-08-06T02:03:35;99569.44;;;14.40;100.00
22440;BME280;11387;51.612;7.210;2023-08-06T02:06:04;99564.63;;;14.37;100.00
22440;BME280;11387;51.612;7.210;2023-08-06T02:08:33;99566.22;;;14.38;100.00
22440;BME280;11387;51.612;7.210;2023-08-06T02:11:02;99570.13;;;14.37;100.00
22440;BME280;11387;51.612;7.210;2023-08-06T02:13:31;99567.03;;;14.39;100.00
22440;BME280;11387;51.612;7.210;2023-08-06T02:15:59;99560.91;;;14.30;100.00
22440;BME280;11387;51.612;7.210;2023-08-06T02:18:28;99561.69;;;14.30;100.00
22440;BME280;11387;51.612;7.210;2023-08-06T02:20:57;99565.03;;;14.24;100.00
22440;BME280;11387;51.612;7.210;2023-08-06T02:23:26;99572.03;;;14.21;100.00
22440;BME280;11387;51.612;7.210;2023-08-06T02:25:59;99564.13;;;14.20;100.00
22440;BME280;11387;51.612;7.210;2023-08-06T02:28:29;99557.13;;;14.22;100.00
22440;BME280;11387;51.612;7.210;2023-08-06T02:30:58;99561.03;;;14.21;100.00
22440;BME280;11387;51.612;7.210;2023-08-06T02:33:27;99553.81;;;14.16;100.00
22440;BME280;11387;51.612;7.210;2023-08-06T02:35:59;99549.81;;;14.14;100.00
22440;BME280;11387;51.612;7.210;2023-08-06T02:38:28;99556.81;;;14.11;100.00
22440;BME280;11387;51.612;7.210;2023-08-06T02:40:57;99553.72;;;14.13;100.00
22440;BME280;11387;51.612;7.210;2023-08-06T02:43:25;99548.91;;;14.10;100.00
22440;BME280;11387;51.612;7.210;2023-08-06T02:45:57;99545.69;;;14.08;100.00
22440;BME280;11387;51.612;7.210;2023-08-06T02:48:26;99542.53;;;14.06;100.00
22440;BME280;11387;51.612;7.210;2023-08-06T02:50:57;99537.91;;;14.10;100.00
22440;BME280;11387;51.612;7.210;2023-08-06T02:53:26;99539.31;;;14.04;100.00
22440;BME280;11387;51.612;7.210;2023-08-06T02:55:55;99530.63;;;14.02;100.00
22440;BME280;11387;51.612;7.210;2023-08-06T02:58:23;99533.25;;;13.98;100.00
22440;BME280;11387;51.612;7.210;2023-08-06T03:01:04;99525.69;;;13.95;100.00
22440;BME280;11387;51.612;7.210;2023-08-06T03:03:34;99523.97;;;13.91;100.00
22440;BME280;11387;51.612;7.210;2023-08-06T03:06:03;99516.66;;;13.95;100.00
22440;BME280;11387;51.612;7.210;2023-08-06T03:08:31;99517.56;;;13.87;100.00
22440;BME280;11387;51.612;7.210;2023-08-06T03:11:00;99518.97;;;13.80;100.00
22440;BME280;11387;51.612;7.210;2023-08-06T03:13:28;99521.06;;;13.71;100.00
22440;BME280;11387;51.612;7.210;2023-08-06T03:15:59;99513.03;;;13.66;100.00
22440;BME280;11387;51.612;7.210;2023-08-06T03:18:29;99510.53;;;13.61;100.00
22440;BME280;11387;51.612;7.210;2023-08-06T03:20:57;99508.94;;;13.60;100.00
22440;BME280;11387;51.612;7.210;2023-08-06T03:23:26;99505.50;;;13.51;100.00
22440;BME280;11387;51.612;7.210;2023-08-06T03:25:54;99505.38;;;13.47;100.00
22440;BME280;11387;51.612;7.210;2023-08-06T03:28:23;99497.28;;;13.39;100.00
22440;BME280;11387;51.612;7.210;2023-08-06T03:30:59;99496.03;;;13.36;100.00
22440;BME280;11387;51.612;7.210;2023-08-06T03:33:43;99508.38;;;13.30;100.00
22440;BME280;11387;51.612;7.210;2023-08-06T03:36:12;99509.28;;;13.22;100.00
22440;BME280;11387;51.612;7.210;2023-08-06T03:38:40;99504.47;;;13.19;100.00
22440;BME280;11387;51.612;7.210;2023-08-06T03:41:09;99505.03;;;13.12;100.00
22440;BME280;11387;51.612;7.210;2023-08-06T03:43:37;99507.44;;;13.14;100.00
22440;BME280;11387;51.612;7.210;2023-08-06T03:46:06;99512.13;;;13.13;100.00
22440;BME280;11387;51.612;7.210;2023-08-06T03:48:35;99504.25;;;13.12;100.00
22440;BME280;11387;51.612;7.210;2023-08-06T03:51:05;99500.13;;;13.06;100.00
22440;BME280;11387;51.612;7.210;2023-08-06T03:53:33;99495.19;;;12.99;100.00
22440;BME280;11387;51.612;7.210;2023-08-06T03:56:02;99501.34;;;12.96;100.00
22440;BME280;11387;51.612;7.210;2023-08-06T03:58:31;99503.63;;;12.94;100.00
22440;BME280;11387;51.612;7.210;2023-08-06T04:01:00;99492.78;;;12.98;100.00
22440;BME280;11387;51.612;7.210;2023-08-06T04:03:53;99491.72;;;12.90;100.00
22440;BME280;11387;51.612;7.210;2023-08-06T04:06:23;99496.63;;;12.85;100.00
22440;BME280;11387;51.612;7.210;2023-08-06T04:08:52;99491.53;;;12.83;100.00
22440;BME280;11387;51.612;7.210;2023-08-06T04:11:20;99502.38;;;12.79;100.00
22440;BME280;11387;51.612;7.210;2023-08-06T04:13:49;99496.53;;;12.81;100.00
22440;BME280;11387;51.612;7.210;2023-08-06T04:16:18;99501.31;;;12.84;100.00
22440;BME280;11387;51.612;7.210;2023-08-06T04:18:47;99498.59;;;12.84;100.00
22440;BME280;11387;51.612;7.210;2023-08-06T04:21:16;99495.16;;;12.87;100.00
22440;BME280;11387;51.612;7.210;2023-08-06T04:23:46;99494.69;;;12.85;100.00
22440;BME280;11387;51.612;7.210;2023-08-06T04:26:14;99505.13;;;12.79;100.00
22440;BME280;11387;51.612;7.210;2023-08-06T04:28:43;99492.41;;;12.87;100.00
22440;BME280;11387;51.612;7.210;2023-08-06T04:31:12;99494.94;;;12.80;100.00
22440;BME280;11387;51.612;7.210;2023-08-06T04:33:40;99492.31;;;12.84;100.00
22440;BME280;11387;51.612;7.210;2023-08-06T04:36:11;99492.88;;;12.77;100.00
22440;BME280;11387;51.612;7.210;2023-08-06T04:38:40;99495.16;;;12.75;100.00
22440;BME280;11387;51.612;7.210;2023-08-06T04:41:13;99492.75;;;12.73;100.00
22440;BME280;11387;51.612;7.210;2023-08-06T04:43:42;99496.09;;;12.79;100.00
22440;BME280;11387;51.612;7.210;2023-08-06T04:46:10;99505.00;;;12.88;100.00
22440;BME280;11387;51.612;7.210;2023-08-06T04:48:39;99502.28;;;13.00;100.00
22440;BME280;11387;51.612;7.210;2023-08-06T04:51:13;99498.38;;;13.01;100.00
22440;BME280;11387;51.612;7.210;2023-08-06T04:53:42;99496.59;;;13.18;100.00
22440;BME280;11387;51.612;7.210;2023-08-06T04:56:10;99497.16;;;13.23;100.00
22440;BME280;11387;51.612;7.210;2023-08-06T04:58:40;99495.44;;;13.31;100.00
22440;BME280;11387;51.612;7.210;2023-08-06T05:01:09;99497.16;;;13.35;100.00
22440;BME280;11387;51.612;7.210;2023-08-06T05:03:38;99497.72;;;13.53;100.00
22440;BME280;11387;51.612;7.210;2023-08-06T05:06:06;99498.50;;;13.54;100.00
22440;BME280;11387;51.612;7.210;2023-08-06T05:08:35;99502.72;;;13.75;100.00
22440;BME280;11387;51.612;7.210;2023-08-06T05:11:03;99504.50;;;13.96;100.00
22440;BME280;11387;51.612;7.210;2023-08-06T05:13:32;99500.19;;;14.10;100.00
22440;BME280;11387;51.612;7.210;2023-08-06T05:16:02;99506.81;;;14.22;100.00
22440;BME280;11387;51.612;7.210;2023-08-06T05:18:31;99507.81;;;14.29;100.00
22440;BME280;11387;51.612;7.210;2023-08-06T05:21:05;99512.41;;;14.25;100.00
22440;BME280;11387;51.612;7.210;2023-08-06T05:23:33;99520.06;;;14.32;100.00
22440;BME280;11387;51.612;7.210;2023-08-06T05:26:02;99520.03;;;14.44;100.00
22440;BME280;11387;51.612;7.210;2023-08-06T05:28:30;99521.84;;;14.52;100.00
22440;BME280;11387;51.612;7.210;2023-08-06T05:31:04;99510.38;;;14.50;100.00
22440;BME280;11387;51.612;7.210;2023-08-06T05:33:33;99516.25;;;14.48;100.00
22440;BME280;11387;51.612;7.210;2023-08-06T05:36:01;99518.94;;;14.61;100.00
22440;BME280;11387;51.612;7.210;2023-08-06T05:38:30;99522.13;;;14.63;100.00
22440;BME280;11387;51.612;7.210;2023-08-06T05:40:59;99527.00;;;14.69;100.00
22440;BME280;11387;51.612;7.210;2023-08-06T05:43:27;99526.06;;;14.77;100.00
22440;BME280;11387;51.612;7.210;2023-08-06T05:45:56;99520.13;;;14.91;100.00
22440;BME280;11387;51.612;7.210;2023-08-06T05:48:26;99528.03;;;15.08;100.00
22440;BME280;11387;51.612;7.210;2023-08-06T05:50:55;99525.38;;;15.28;100.00
22440;BME280;11387;51.612;7.210;2023-08-06T05:53:24;99533.63;;;15.43;100.00
22440;BME280;11387;51.612;7.210;2023-08-06T05:55:52;99535.22;;;15.44;100.00
22440;BME280;11387;51.612;7.210;2023-08-06T05:58:23;99538.06;;;15.48;100.00
22440;BME280;11387;51.612;7.210;2023-08-06T06:00:53;99528.84;;;15.56;100.00
22440;BME280;11387;51.612;7.210;2023-08-06T06:03:22;99529.44;;;15.65;100.00
22440;BME280;11387;51.612;7.210;2023-08-06T06:05:52;99535.03;;;15.69;100.00
22440;BME280;11387;51.612;7.210;2023-08-06T06:08:21;99530.47;;;15.76;100.00
22440;BME280;11387;51.612;7.210;2023-08-06T06:10:53;99535.50;;;15.90;100.00
22440;BME280;11387;51.612;7.210;2023-08-06T06:13:21;99540.63;;;16.07;100.00
22440;BME280;11387;51.612;7.210;2023-08-06T06:15:50;99540.09;;;16.21;100.00
22440;BME280;11387;51.612;7.210;2023-08-06T06:18:18;99535.97;;;16.50;100.00
22440;BME280;11387;51.612;7.210;2023-08-06T06:20:47;99539.63;;;16.73;100.00
22440;BME280;11387;51.612;7.210;2023-08-06T06:23:20;99540.28;;;16.67;100.00
22440;BME280;11387;51.612;7.210;2023-08-06T06:25:49;99543.69;;;16.79;100.00
22440;BME280;11387;51.612;7.210;2023-08-06T06:28:19;99536.13;;;16.99;100.00
22440;BME280;11387;51.612;7.210;2023-08-06T06:30:47;99541.09;;;17.36;100.00
22440;BME280;11387;51.612;7.210;2023-08-06T06:33:16;99543.88;;;17.36;96.81
22440;BME280;11387;51.612;7.210;2023-08-06T06:35:44;99539.94;;;17.37;95.95
22440;BME280;11387;51.612;7.210;2023-08-06T06:38:13;99537.38;;;17.51;96.61
22440;BME280;11387;51.612;7.210;2023-08-06T06:40:43;99540.41;;;17.65;95.66
22440;BME280;11387;51.612;7.210;2023-08-06T06:43:12;99541.00;;;18.08;94.74
22440;BME280;11387;51.612;7.210;2023-08-06T06:45:40;99547.53;;;18.56;90.68
22440;BME280;11387;51.612;7.210;2023-08-06T06:48:12;99542.00;;;18.90;87.19
22440;BME280;11387;51.612;7.210;2023-08-06T06:50:47;99541.78;;;18.72;85.66
22440;BME280;11387;51.612;7.210;2023-08-06T06:53:15;99541.44;;;18.77;84.58
22440;BME280;11387;51.612;7.210;2023-08-06T06:55:50;99537.34;;;19.01;85.71
22440;BME280;11387;51.612;7.210;2023-08-06T06:58:19;99533.41;;;19.05;83.75
22440;BME280;11387;51.612;7.210;2023-08-06T07:00:48;99539.38;;;19.07;82.09
22440;BME280;11387;51.612;7.210;2023-08-06T07:03:16;99538.13;;;19.45;82.33
22440;BME280;11387;51.612;7.210;2023-08-06T07:05:45;99542.38;;;19.80;79.28
22440;BME280;11387;51.612;7.210;2023-08-06T07:08:17;99539.81;;;20.23;77.78
22440;BME280;11387;51.612;7.210;2023-08-06T07:10:46;99534.75;;;20.39;74.65
22440;BME280;11387;51.612;7.210;2023-08-06T07:13:16;99526.31;;;20.21;73.41
22440;BME280;11387;51.612;7.210;2023-08-06T07:15:47;99537.31;;;20.00;73.00
22440;BME280;11387;51.612;7.210;2023-08-06T07:18:15;99534.94;;;20.02;74.33
22440;BME280;11387;51.612;7.210;2023-08-06T07:20:48;99532.25;;;20.12;74.55
22440;BME280;11387;51.612;7.210;2023-08-06T07:23:17;99536.91;;;19.98;73.70
22440;BME280;11387;51.612;7.210;2023-08-06T07:25:46;99542.09;;;20.03;74.67
22440;BME280;11387;51.612;7.210;2023-08-06T07:28:17;99544.59;;;20.26;74.23
22440;BME280;11387;51.612;7.210;2023-08-06T07:30:45;99542.72;;;20.44;72.37
22440;BME280;11387;51.612;7.210;2023-08-06T07:33:21;99542.34;;;20.52;73.16
22440;BME280;11387;51.612;7.210;2023-08-06T07:35:49;99549.50;;;20.57;73.64
22440;BME280;11387;51.612;7.210;2023-08-06T07:38:18;99555.97;;;20.03;71.53
22440;BME280;11387;51.612;7.210;2023-08-06T07:40:47;99553.09;;;19.81;74.93
22440;BME280;11387;51.612;7.210;2023-08-06T07:43:17;99552.66;;;19.76;75.68
22440;BME280;11387;51.612;7.210;2023-08-06T07:45:45;99555.84;;;19.81;77.05
22440;BME280;11387;51.612;7.210;2023-08-06T07:48:14;99562.25;;;19.86;76.83
22440;BME280;11387;51.612;7.210;2023-08-06T07:50:43;99558.28;;;19.90;76.19
22440;BME280;11387;51.612;7.210;2023-08-06T07:53:17;99566.63;;;19.94;74.15
22440;BME280;11387;51.612;7.210;2023-08-06T07:55:49;99564.22;;;19.92;73.53
22440;BME280;11387;51.612;7.210;2023-08-06T07:58:19;99564.22;;;19.85;72.64
22440;BME280;11387;51.612;7.210;2023-08-06T08:00:48;99558.66;;;19.85;73.73
22440;BME280;11387;51.612;7.210;2023-08-06T08:03:17;99558.81;;;20.13;73.00
22440;BME280;11387;51.612;7.210;2023-08-06T08:05:47;99564.44;;;20.28;72.68
22440;BME280;11387;51.612;7.210;2023-08-06T08:08:15;99561.38;;;20.50;73.26
22440;BME280;11387;51.612;7.210;2023-08-06T08:10:45;99564.59;;;20.60;72.69
22440;BME280;11387;51.612;7.210;2023-08-06T08:13:15;99563.38;;;20.46;69.69
22440;BME280;11387;51.612;7.210;2023-08-06T08:15:45;99563.19;;;20.18;71.56
22440;BME280;11387;51.612;7.210;2023-08-06T08:18:14;99570.56;;;19.89;73.17
22440;BME280;11387;51.612;7.210;2023-08-06T08:20:42;99577.47;;;19.58;75.67
22440;BME280;11387;51.612;7.210;2023-08-06T08:23:12;99571.53;;;19.15;77.24
22440;BME280;11387;51.612;7.210;2023-08-06T08:25:40;99576.53;;;18.66;81.57
22440;BME280;11387;51.612;7.210;2023-08-06T08:28:10;99569.84;;;18.37;83.95
22440;BME280;11387;51.612;7.210;2023-08-06T08:30:40;99569.53;;;18.12;86.78
22440;BME280;11387;51.612;7.210;2023-08-06T08:33:11;99575.44;;;17.84;87.34
22440;BME280;11387;51.612;7.210;2023-08-06T08:35:40;99572.94;;;17.75;89.04
22440;BME280;11387;51.612;7.210;2023-08-06T08:38:09;99571.16;;;17.64;90.30
22440;BME280;11387;51.612;7.210;2023-08-06T08:40:41;99571.72;;;17.50;91.35
22440;BME280;11387;51.612;7.210;2023-08-06T08:43:12;99577.91;;;17.40;93.18
22440;BME280;11387;51.612;7.210;2023-08-06T08:45:45;99576.13;;;17.28;94.26
22440;BME280;11387;51.612;7.210;2023-08-06T08:48:20;99582.00;;;17.04;95.99
22440;BME280;11387;51.612;7.210;2023-08-06T08:50:50;99571.41;;;16.87;96.64
22440;BME280;11387;51.612;7.210;2023-08-06T08:53:21;99575.94;;;16.75;97.71
22440;BME280;11387;51.612;7.210;2023-08-06T08:55:50;99581.50;;;16.60;98.17
22440;BME280;11387;51.612;7.210;2023-08-06T08:58:19;99580.22;;;16.54;99.01
22440;BME280;11387;51.612;7.210;2023-08-06T09:00:48;99582.16;;;16.53;99.76
22440;BME280;11387;51.612;7.210;2023-08-06T09:03:17;99587.41;;;16.58;100.00
22440;BME280;11387;51.612;7.210;2023-08-06T09:05:49;99589.97;;;16.67;100.00
22440;BME280;11387;51.612;7.210;2023-08-06T09:08:27;99589.31;;;16.73;100.00
22440;BME280;11387;51.612;7.210;2023-08-06T09:10:56;99587.97;;;16.87;100.00
22440;BME280;11387;51.612;7.210;2023-08-06T09:13:25;99586.16;;;16.94;100.00
22440;BME280;11387;51.612;7.210;2023-08-06T09:15:54;99585.28;;;17.09;100.00
22440;BME280;11387;51.612;7.210;2023-08-06T09:18:28;99589.38;;;17.19;100.00
22440;BME280;11387;51.612;7.210;2023-08-06T09:21:05;99596.69;;;17.31;100.00
22440;BME280;11387;51.612;7.210;2023-08-06T09:23:49;99607.25;;;17.48;100.00
22440;BME280;11387;51.612;7.210;2023-08-06T09:26:33;99592.16;;;17.65;98.94
22440;BME280;11387;51.612;7.210;2023-08-06T09:29:08;99602.94;;;17.73;97.70
22440;BME280;11387;51.612;7.210;2023-08-06T09:31:41;99601.88;;;17.81;96.61
22440;BME280;11387;51.612;7.210;2023-08-06T09:34:11;99609.19;;;17.93;95.92
22440;BME280;11387;51.612;7.210;2023-08-06T09:36:42;99609.19;;;18.20;95.40
22440;BME280;11387;51.612;7.210;2023-08-06T09:39:12;99607.91;;;18.43;94.63
22440;BME280;11387;51.612;7.210;2023-08-06T09:41:41;99606.63;;;18.64;91.80
22440;BME280;11387;51.612;7.210;2023-08-06T09:44:15;99604.47;;;18.83;90.48
22440;BME280;11387;51.612;7.210;2023-08-06T09:46:47;99607.50;;;19.08;90.27
22440;BME280;11387;51.612;7.210;2023-08-06T09:49:18;99609.84;;;19.43;89.43
22440;BME280;11387;51.612;7.210;2023-08-06T09:51:52;99618.94;;;19.84;85.74
22440;BME280;11387;51.612;7.210;2023-08-06T09:54:24;99614.03;;;20.29;83.61
22440;BME280;11387;51.612;7.210;2023-08-06T09:56:55;99605.56;;;20.77;82.59
22440;BME280;11387;51.612;7.210;2023-08-06T09:59:24;99607.63;;;21.12;80.14
22440;BME280;11387;51.612;7.210;2023-08-06T10:01:54;99617.25;;;21.29;77.66
22440;BME280;11387;51.612;7.210;2023-08-06T10:04:24;99605.34;;;21.39;76.54
22440;BME280;11387;51.612;7.210;2023-08-06T10:07:06;99604.53;;;21.84;75.68
22440;BME280;11387;51.612;7.210;2023-08-06T10:09:35;99606.50;;;21.98;74.39
22440;BME280;11387;51.612;7.210;2023-08-06T10:12:04;99604.09;;;22.18;73.99
22440;BME280;11387;51.612;7.210;2023-08-06T10:14:35;99598.91;;;22.27;71.94
22440;BME280;11387;51.612;7.210;2023-08-06T10:17:05;99595.72;;;22.29;69.76
22440;BME280;11387;51.612;7.210;2023-08-06T10:19:34;99594.78;;;22.67;70.94
22440;BME280;11387;51.612;7.210;2023-08-06T10:22:12;99597.75;;;23.15;68.77
22440;BME280;11387;51.612;7.210;2023-08-06T10:24:48;99592.03;;;23.30;66.52
22440;BME280;11387;51.612;7.210;2023-08-06T10:27:28;99595.00;;;24.46;64.14
22440;BME280;11387;51.612;7.210;2023-08-06T10:30:22;99585.78;;;25.10;58.96
22440;BME280;11387;51.612;7.210;2023-08-06T10:32:53;99589.81;;;26.06;58.27
22440;BME280;11387;51.612;7.210;2023-08-06T10:35:35;99582.72;;;27.00;54.06
22440;BME280;11387;51.612;7.210;2023-08-06T10:38:07;99584.38;;;27.82;52.88
22440;BME280;11387;51.612;7.210;2023-08-06T10:40:36;99586.44;;;28.11;50.04
22440;BME280;11387;51.612;7.210;2023-08-06T10:43:05;99587.97;;;28.99;47.61
22440;BME280;11387;51.612;7.210;2023-08-06T10:46:02;99593.81;;;28.21;48.36
22440;BME280;11387;51.612;7.210;2023-08-06T10:48:34;99585.31;;;27.27;47.44
22440;BME280;11387;51.612;7.210;2023-08-06T10:51:07;99584.34;;;26.62;49.30
22440;BME280;11387;51.612;7.210;2023-08-06T10:53:37;99584.91;;;26.33;50.61
22440;BME280;11387;51.612;7.210;2023-08-06T10:56:12;99583.53;;;26.22;51.12
22440;BME280;11387;51.612;7.210;2023-08-06T10:58:41;99575.34;;;26.31;48.93
22440;BME280;11387;51.612;7.210;2023-08-06T11:01:10;99589.06;;;26.25;50.22
22440;BME280;11387;51.612;7.210;2023-08-06T11:03:40;99585.94;;;26.43;50.96
22440;BME280;11387;51.612;7.210;2023-08-06T11:06:09;99584.78;;;26.60;50.70
22440;BME280;11387;51.612;7.210;2023-08-06T11:08:42;99589.97;;;25.75;50.69
22440;BME280;11387;51.612;7.210;2023-08-06T11:11:16;99589.94;;;24.68;53.39
22440;BME280;11387;51.612;7.210;2023-08-06T11:13:46;99595.59;;;23.85;56.11
22440;BME280;11387;51.612;7.210;2023-08-06T11:16:17;99599.78;;;23.63;57.91
22440;BME280;11387;51.612;7.210;2023-08-06T11:18:46;99594.59;;;23.10;60.08
22440;BME280;11387;51.612;7.210;2023-08-06T11:21:19;99596.34;;;22.72;61.54
22440;BME280;11387;51.612;7.210;2023-08-06T11:23:49;99601.31;;;22.14;61.39
22440;BME280;11387;51.612;7.210;2023-08-06T11:26:18;99603.34;;;21.71;64.49
22440;BME280;11387;51.612;7.210;2023-08-06T11:28:47;99612.66;;;20.64;68.05
22440;BME280;11387;51.612;7.210;2023-08-06T11:31:19;99610.38;;;19.15;77.01
22440;BME280;11387;51.612;7.210;2023-08-06T11:33:49;99610.88;;;18.28;86.61
22440;BME280;11387;51.612;7.210;2023-08-06T11:36:28;99607.53;;;17.89;90.61
22440;BME280;11387;51.612;7.210;2023-08-06T11:39:00;99606.50;;;17.74;94.14
22440;BME280;11387;51.612;7.210;2023-08-06T11:41:30;99599.88;;;17.33;95.32
22440;BME280;11387;51.612;7.210;2023-08-06T11:43:59;99605.72;;;17.05;97.91
22440;BME280;11387;51.612;7.210;2023-08-06T11:46:28;99611.53;;;17.00;99.88
22440;BME280;11387;51.612;7.210;2023-08-06T11:48:58;99613.94;;;16.82;100.00
22440;BME280;11387;51.612;7.210;2023-08-06T11:51:27;99614.69;;;16.79;100.00
22440;BME280;11387;51.612;7.210;2023-08-06T11:53:56;99617.22;;;16.68;100.00
22440;BME280;11387;51.612;7.210;2023-08-06T11:56:27;99621.34;;;16.59;100.00
22440;BME280;11387;51.612;7.210;2023-08-06T11:58:56;99633.97;;;16.60;100.00
22440;BME280;11387;51.612;7.210;2023-08-06T12:01:25;99634.72;;;16.57;100.00
22440;BME280;11387;51.612;7.210;2023-08-06T12:03:58;99638.56;;;16.52;100.00
22440;BME280;11387;51.612;7.210;2023-08-06T12:06:27;99635.38;;;16.50;100.00
22440;BME280;11387;51.612;7.210;2023-08-06T12:08:56;99643.34;;;16.55;100.00
22440;BME280;11387;51.612;7.210;2023-08-06T12:11:26;99645.19;;;16.47;100.00
22440;BME280;11387;51.612;7.210;2023-08-06T12:13:55;99636.03;;;16.43;100.00
22440;BME280;11387;51.612;7.210;2023-08-06T12:16:24;99642.44;;;16.47;100.00
22440;BME280;11387;51.612;7.210;2023-08-06T12:18:53;99646.19;;;16.39;100.00
22440;BME280;11387;51.612;7.210;2023-08-06T12:21:22;99647.09;;;16.28;100.00
22440;BME280;11387;51.612;7.210;2023-08-06T12:23:50;99648.97;;;16.24;100.00
22440;BME280;11387;51.612;7.210;2023-08-06T12:26:19;99655.22;;;16.21;100.00
22440;BME280;11387;51.612;7.210;2023-08-06T12:28:49;99659.00;;;16.12;100.00
22440;BME280;11387;51.612;7.210;2023-08-06T12:31:18;99652.50;;;16.05;100.00
22440;BME280;11387;51.612;7.210;2023-08-06T12:33:48;99664.91;;;15.79;100.00
22440;BME280;11387;51.612;7.210;2023-08-06T12:36:19;99664.09;;;15.79;100.00
22440;BME280;11387;51.612;7.210;2023-08-06T12:38:52;99670.06;;;15.81;100.00
22440;BME280;11387;51.612;7.210;2023-08-06T12:41:23;99663.31;;;15.78;100.00
22440;BME280;11387;51.612;7.210;2023-08-06T12:43:55;99675.81;;;15.60;100.00
22440;BME280;11387;51.612;7.210;2023-08-06T12:46:31;99688.97;;;15.51;100.00
22440;BME280;11387;51.612;7.210;2023-08-06T12:49:01;99688.38;;;15.30;100.00
22440;BME280;11387;51.612;7.210;2023-08-06T12:51:32;99682.50;;;15.15;100.00
22440;BME280;11387;51.612;7.210;2023-08-06T12:54:08;99710.16;;;14.91;100.00
22440;BME280;11387;51.612;7.210;2023-08-06T12:56:42;99710.19;;;14.79;100.00
22440;BME280;11387;51.612;7.210;2023-08-06T12:59:30;99703.03;;;14.62;100.00
22440;BME280;11387;51.612;7.210;2023-08-06T13:02:02;99717.03;;;14.57;100.00
22440;BME280;11387;51.612;7.210;2023-08-06T13:04:32;99707.16;;;14.44;100.00
22440;BME280;11387;51.612;7.210;2023-08-06T13:07:02;99721.03;;;14.35;100.00
22440;BME280;11387;51.612;7.210;2023-08-06T13:09:30;99711.53;;;14.33;100.00